• Join FlightAware (Why Join?)
  • Login
  • US Flag 
08:16PM EDT


 

Airport Tracker/Info


-or-


 

Live Flight TrackerFlight Track Log ✈ CHH7103 ✈ 02-Sep-2013 ✈ ZBAA / PEK - ZYMD / MDG

Flight Track Log - Related Links

Times and Time Zones

All times are in EDT time to prevent confusion due to time zone crossing. See the CHH7103 flight status page for this flight to view local times or setup timezone preferences in your user account.

Time Position Orientation Groundspeed Altitude Reporting Facility
EDT Latitude Longitude Course Direction KTS MPH feet Rate Location/Type
07:41PM 40.1315 116.7053 61° Northeast  Level Estimated
07:42PM 40.1827 116.8263 61° Northeast  Level Estimated
07:43PM 40.2338 116.9474 61° Northeast  Level Estimated
07:44PM 40.2848 117.0687 61° Northeast  Level Estimated
07:45PM 40.3357 117.1902 61° Northeast  Level Estimated
07:46PM 40.3864 117.3119 61° Northeast  Level Estimated
07:47PM 40.4370 117.4337 61° Northeast  Level Estimated
07:48PM 40.4875 117.5558 61° Northeast  Level Estimated
07:49PM 40.5378 117.6780 62° Northeast  Level Estimated
07:50PM 40.5918 117.8096 62° Northeast  Level Estimated
07:51PM 40.6456 117.9415 62° Northeast  Level Estimated
07:52PM 40.6993 118.0735 62° Northeast  Level Estimated
07:53PM 40.7529 118.2058 62° Northeast  Level Estimated
07:54PM 40.8063 118.3383 62° Northeast  Level Estimated
07:55PM 40.8595 118.4710 62° Northeast  Level Estimated
07:56PM 40.9126 118.6039 62° Northeast  Level Estimated
07:57PM 40.9655 118.7370 62° Northeast  Level Estimated
07:58PM 41.0183 118.8703 62° Northeast  Level Estimated
07:59PM 41.0709 119.0039 62° Northeast  Level Estimated
08:00PM 41.1234 119.1376 62° Northeast  Level Estimated
08:01PM 41.1757 119.2716 63° Northeast  Level Estimated
08:02PM 41.2279 119.4058 63° Northeast  Level Estimated
08:03PM 41.2799 119.5402 63° Northeast  Level Estimated
08:04PM 41.3317 119.6748 63° Northeast  Level Estimated
08:05PM 41.3834 119.8096 63° Northeast  Level Estimated
08:06PM 41.4350 119.9447 63° Northeast  Level Estimated
08:07PM 41.4863 120.0799 63° Northeast  Level Estimated
08:08PM 41.5375 120.2154 63° Northeast  Level Estimated
08:09PM 41.5886 120.3511 63° Northeast  Level Estimated
08:10PM 41.6395 120.4870 63° Northeast  Level Estimated
08:11PM 41.6902 120.6231 63° Northeast  Level Estimated
08:12PM 41.7408 120.7595 64° Northeast  Level Estimated
08:13PM 41.7912 120.8960 64° Northeast  Level Estimated
08:14PM 41.8415 121.0328 64° Northeast  Level Estimated
08:15PM 41.8916 121.1697 64° Northeast  Level Estimated
08:16PM 41.9415 121.3069 64° Northeast  Level Estimated
08:17PM 41.9913 121.4443 64° Northeast  Level Estimated
08:18PM 42.0409 121.5820 64° Northeast  Level Estimated
08:19PM 42.0903 121.7198 64° Northeast  Level Estimated
08:20PM 42.1396 121.8578 64° Northeast  Level Estimated
08:21PM 42.1887 121.9961 64° Northeast  Level Estimated
08:22PM 42.2376 122.1346 64° Northeast  Level Estimated
08:23PM 42.2864 122.2733 65° Northeast  Level Estimated
08:24PM 42.3350 122.4122 65° Northeast  Level Estimated
08:25PM 42.3834 122.5513 65° Northeast  Level Estimated
08:26PM 42.4317 122.6906 65° Northeast  Level Estimated
08:27PM 42.4798 122.8302 65° Northeast  Level Estimated
08:28PM 42.5277 122.9699 65° Northeast  Level Estimated
08:29PM 42.5755 123.1099 65° Northeast  Level Estimated
08:30PM 42.6231 123.2501 65° Northeast  Level Estimated
08:31PM 42.6705 123.3905 65° Northeast  Level Estimated
08:32PM 42.7177 123.5312 65° Northeast  Level Estimated
08:33PM 42.7648 123.6720 65° Northeast  Level Estimated
08:34PM 42.8117 123.8130 66° East  Level Estimated
08:35PM 42.8584 123.9543 66° East  Level Estimated
08:36PM 42.9050 124.0958 66° East  Level Estimated
08:37PM 42.9514 124.2375 66° East  Level Estimated
08:38PM 42.9976 124.3794 66° East  Level Estimated
08:39PM 43.0436 124.5215 66° East  Level Estimated
08:40PM 43.0894 124.6638 66° East  Level Estimated
08:41PM 43.1351 124.8064 66° East  Level Estimated
08:42PM 43.1806 124.9491 66° East  Level Estimated
08:43PM 43.2259 125.0921 66° East  Level Estimated
08:44PM 43.2711 125.2353 67° East  Level Estimated
08:45PM 43.3160 125.3786 67° East  Level Estimated
08:46PM 43.3608 125.5222 67° East  Level Estimated
08:47PM 43.4054 125.6661 67° East  Level Estimated
08:48PM 43.4498 125.8101 67° East  Level Estimated
08:49PM 43.4941 125.9543 67° East  Level Estimated
08:50PM 43.5381 126.0988 67° East  Level Estimated
08:51PM 43.5820 126.2434 67° East  Level Estimated
08:52PM 43.6257 126.3883 67° East  Level Estimated
08:53PM 43.6692 126.5334 67° East  Level Estimated
08:54PM 43.7125 126.6787 68° East  Level Estimated
08:55PM 43.7557 126.8242 68° East  Level Estimated
08:56PM 43.7986 126.9699 68° East  Level Estimated
08:57PM 43.8414 127.1158 68° East  Level Estimated
08:58PM 43.8840 127.2619 68° East  Level Estimated
08:59PM 43.9264 127.4083 68° East  Level Estimated
09:00PM 43.9686 127.5548 68° East  Level Estimated
09:01PM 44.0107 127.7016 68° East  Level Estimated
09:02PM 44.0525 127.8485 68° East  Level Estimated
09:03PM 44.0941 127.9957 68° East  Level Estimated
09:04PM 44.1356 128.1431 69° East  Level Estimated
09:05PM 44.1769 128.2906 69° East  Level Estimated
09:06PM 44.2179 128.4384 69° East  Level Estimated
09:07PM 44.2588 128.5864 69° East  Level Estimated
09:08PM 44.2995 128.7346 69° East  Level Estimated
09:09PM 44.3400 128.8830 69° East  Level Estimated
09:10PM 44.3804 129.0316 69° East  Level Estimated
09:11PM 44.4205 129.1804 69° East  Level Estimated
09:12PM 44.4604 129.3295 69° East  Level Estimated
09:13PM 44.5001 129.4787 69° East  Level Estimated
09:14PM 44.5241 129.5690 70° East  Level Estimated
09:15PM 44.5241 129.5690 35° Northeast  Level Estimated
09:16PM 44.5241 129.5690 35° Northeast  Level Estimated
09:17PM 44.5241 129.5690 35° Northeast  Level Estimated
09:18PM 44.5241 129.5690 35° Northeast  Level Estimated
09:19PM 44.5241 129.5690 35° Northeast  Level Estimated
09:20PM 44.5241 129.5690 35° Northeast  Level Estimated
09:21PM 44.5241 129.5690 35° Northeast  Level Estimated
09:22PM 44.5241 129.5690 35° Northeast  Level Estimated
09:23PM 44.5241 129.5690 35° Northeast  Level Estimated
09:24PM 44.5241 129.5690 35° Northeast  Level Estimated
09:25PM 44.5241 129.5690 35° Northeast  Level Estimated